Oakwood Village, Ohio
Current Conditions -  °F | °C
As of 4:45 PM on Friday 31 Oct 2014 (Local Time) from KCGF Reporting Station
Overcast Overcast  
Wind Chill: 45°   Ceiling: 3500
Heat Index: 48°   Visibility: 7mi
Dew Point: 41°   Wind: 7mph
Humidity: 76%   Direction: 310°NW
Pressure: 29.86"   Gusts: NA
Location:  41.3816°N, 81.5301°W
Report Text: KCGF 312045Z 31006KT 7SM SCT025 OVC035 09/05 A2986
Loading
Personal Weather Stations






























Interactive Weather Map
Tropical Storm Tracking
New forecast layout! Learn more

10-Day Weather Forecast

Advertisements
Track Severe Weather on mobile